Time;durP1;ratioP1;P1;durP2;ratioP2;P2;SDS_P1;SDS_P2;PMS_P1;PMS_P2;Temp;Humidity;BMP_temperature;BMP_pressure;BME280_temperature;BME280_humidity;BME280_pressure;Samples;Min_cycle;Max_cycle;Signal;HPM_P1;HPM_P2
2023/04/28 00:02:00;;;;;;;8.30;5.28;;;7.30;99.90;;;;;;4903346;29;20027;-92
2023/04/28 00:04:25;;;;;;;7.20;5.25;;;7.30;99.90;;;;;;4901443;29;20036;-92
2023/04/28 00:06:51;;;;;;;6.78;5.30;;;7.30;99.90;;;;;;4918196;29;20183;-92
2023/04/28 00:09:17;;;;;;;8.10;4.93;;;7.40;99.90;;;;;;4912797;29;20032;-92
2023/04/28 00:11:46;;;;;;;9.60;6.85;;;7.40;99.90;;;;;;4912447;29;20111;-92
2023/04/28 00:14:12;;;;;;;7.00;5.18;;;7.40;99.90;;;;;;4910594;29;20026;-92
2023/04/28 00:16:38;;;;;;;7.22;5.00;;;7.40;99.90;;;;;;4908012;29;20032;-92
2023/04/28 00:19:04;;;;;;;7.53;5.10;;;7.40;99.90;;;;;;4907306;29;20103;-92
2023/04/28 00:21:30;;;;;;;7.80;5.75;;;7.40;99.90;;;;;;4902074;29;20045;-92
2023/04/28 00:23:56;;;;;;;7.97;5.50;;;7.40;99.90;;;;;;4901267;29;20032;-92
2023/04/28 00:26:22;;;;;;;8.43;5.53;;;7.40;99.90;;;;;;4901658;29;20112;-92
2023/04/28 00:28:47;;;;;;;7.05;5.07;;;7.40;99.90;;;;;;4921678;29;20028;-91
2023/04/28 00:31:17;;;;;;;6.93;4.32;;;7.30;99.90;;;;;;4917961;29;20565;-92
2023/04/28 00:33:43;;;;;;;5.75;4.28;;;7.30;99.90;;;;;;4900979;29;20028;-92
2023/04/28 00:36:10;;;;;;;5.13;3.90;;;7.30;99.90;;;;;;4917156;29;20478;-92
2023/04/28 00:38:35;;;;;;;6.15;4.60;;;7.40;99.90;;;;;;4916857;29;20024;-92
2023/04/28 00:41:01;;;;;;;5.68;4.50;;;7.30;99.90;;;;;;4900368;29;20043;-92
2023/04/28 00:43:27;;;;;;;5.45;4.22;;;7.30;99.90;;;;;;4899765;29;20111;-92
2023/04/28 00:45:53;;;;;;;6.45;4.10;;;7.40;99.90;;;;;;4900972;29;20119;-91
2023/04/28 00:48:19;;;;;;;5.75;4.70;;;7.30;99.90;;;;;;4900947;29;20032;-92
2023/04/28 00:50:46;;;;;;;7.22;5.38;;;7.30;99.90;;;;;;4900362;29;20087;-92
2023/04/28 00:53:12;;;;;;;8.00;5.65;;;7.30;99.90;;;;;;4899739;29;20426;-92
2023/04/28 00:55:39;;;;;;;8.90;5.65;;;7.30;99.90;;;;;;4900291;29;20034;-92
2023/04/28 00:58:05;;;;;;;8.98;6.68;;;7.30;99.90;;;;;;4899532;29;20031;-92
2023/04/28 01:00:31;;;;;;;9.23;6.07;;;7.30;99.90;;;;;;4900053;29;20577;-92
2023/04/28 01:02:58;;;;;;;9.68;6.57;;;7.20;99.90;;;;;;4916994;29;20144;-92
2023/04/28 01:05:28;;;;;;;9.02;5.88;;;7.20;99.90;;;;;;4900752;29;20033;-92
2023/04/28 01:07:53;;;;;;;9.77;6.40;;;7.20;99.90;;;;;;4900797;29;20025;-92
2023/04/28 01:10:19;;;;;;;8.55;5.63;;;7.10;99.90;;;;;;4901361;29;20040;-92
2023/04/28 01:12:45;;;;;;;8.88;5.88;;;7.10;99.90;;;;;;4925539;29;20056;-92
2023/04/28 01:15:19;;;;;;;8.77;6.25;;;7.10;99.90;;;;;;4919420;29;20036;-93
2023/04/28 01:17:46;;;;;;;8.77;5.93;;;7.10;99.90;;;;;;4917405;29;20039;-92
2023/04/28 01:20:12;;;;;;;10.82;6.88;;;7.10;99.90;;;;;;4916701;29;20063;-93
2023/04/28 01:22:38;;;;;;;10.00;7.15;;;7.10;99.90;;;;;;4920634;29;20032;-93
2023/04/28 01:25:04;;;;;;;8.27;6.05;;;7.10;99.90;;;;;;4918824;29;20041;-94
2023/04/28 01:27:29;;;;;;;7.97;4.85;;;7.20;99.90;;;;;;4917061;29;20478;-92
2023/04/28 01:29:57;;;;;;;10.68;6.57;;;7.20;99.90;;;;;;4917634;29;20028;-92
2023/04/28 01:32:22;;;;;;;8.63;5.82;;;7.20;99.90;;;;;;4919082;29;20257;-93
2023/04/28 01:34:48;;;;;;;7.47;5.47;;;7.20;99.90;;;;;;4919343;29;20043;-92
2023/04/28 01:37:14;;;;;;;8.43;5.32;;;7.20;99.90;;;;;;4919722;29;20035;-93
2023/04/28 01:39:39;;;;;;;8.23;5.78;;;7.20;99.90;;;;;;4919356;29;20506;-92
2023/04/28 01:42:05;;;;;;;9.15;6.35;;;7.20;99.90;;;;;;4919876;29;20111;-93
2023/04/28 01:44:30;;;;;;;9.23;5.63;;;7.20;99.90;;;;;;4919539;29;20398;-92
2023/04/28 01:46:56;;;;;;;6.78;5.40;;;7.20;99.90;;;;;;4919108;29;20046;-91
2023/04/28 01:49:22;;;;;;;7.93;5.82;;;7.20;99.90;;;;;;4920008;29;20032;-92
2023/04/28 01:51:48;;;;;;;8.15;5.80;;;7.20;99.90;;;;;;4918696;29;20056;-92
2023/04/28 01:54:14;;;;;;;11.23;6.30;;;7.20;99.90;;;;;;4919771;29;20028;-92
2023/04/28 01:56:40;;;;;;;8.70;5.80;;;7.20;99.90;;;;;;4918308;29;20080;-92
2023/04/28 01:59:05;;;;;;;10.88;7.22;;;7.20;99.90;;;;;;4919066;29;20442;-92
2023/04/28 02:01:31;;;;;;;10.13;6.78;;;7.20;99.90;;;;;;4919496;29;20172;-92
2023/04/28 02:03:57;;;;;;;10.57;6.63;;;7.20;99.90;;;;;;4932186;29;20028;-92
2023/04/28 02:06:22;;;;;;;8.75;5.78;;;7.20;99.90;;;;;;4937919;29;20539;-92
2023/04/28 02:08:48;;;;;;;7.00;4.95;;;7.20;99.90;;;;;;4936403;29;20078;-92
2023/04/28 02:11:14;;;;;;;6.72;5.22;;;7.20;99.90;;;;;;4938166;29;20047;-92
2023/04/28 02:13:39;;;;;;;9.70;6.57;;;7.20;99.90;;;;;;4921439;29;20032;-92
2023/04/28 02:16:05;;;;;;;9.60;6.60;;;7.20;99.90;;;;;;4921793;29;20035;-92
2023/04/28 02:18:31;;;;;;;10.02;6.95;;;7.20;99.90;;;;;;4912068;29;20043;-92
2023/04/28 02:20:57;;;;;;;11.80;7.25;;;7.20;99.90;;;;;;4915038;28;20028;-92
2023/04/28 02:23:22;;;;;;;10.32;6.97;;;7.20;99.90;;;;;;4937152;29;20067;-92
2023/04/28 02:25:48;;;;;;;11.15;7.75;;;7.20;99.90;;;;;;4902224;29;20055;-93
2023/04/28 02:28:14;;;;;;;13.18;8.40;;;7.20;99.90;;;;;;4901865;29;20028;-91
2023/04/28 02:30:39;;;;;;;12.45;7.45;;;7.20;99.90;;;;;;4901559;29;20056;-92
2023/04/28 02:33:05;;;;;;;11.50;7.95;;;7.20;99.90;;;;;;4901540;29;20090;-91
2023/04/28 02:35:31;;;;;;;12.57;8.38;;;7.20;99.90;;;;;;4902018;29;20024;-92
2023/04/28 02:37:56;;;;;;;15.10;8.60;;;7.20;99.90;;;;;;4902041;29;20113;-92
2023/04/28 02:40:22;;;;;;;12.50;8.13;;;7.30;99.90;;;;;;4902638;29;20047;-94
2023/04/28 02:42:48;;;;;;;14.25;9.02;;;7.30;99.90;;;;;;4902139;29;20028;-93
2023/04/28 02:45:13;;;;;;;10.75;7.47;;;7.30;99.90;;;;;;4902408;29;20438;-93
2023/04/28 02:47:39;;;;;;;11.35;7.53;;;7.20;99.90;;;;;;4902353;29;20024;-93
2023/04/28 02:50:05;;;;;;;12.65;8.50;;;7.30;99.90;;;;;;4902414;29;20036;-93
2023/04/28 02:52:31;;;;;;;12.18;7.95;;;7.30;99.90;;;;;;4902116;29;20028;-92
2023/04/28 02:54:57;;;;;;;12.48;8.80;;;7.30;99.90;;;;;;4919105;29;20473;-92
2023/04/28 02:57:23;;;;;;;16.38;8.95;;;7.30;99.90;;;;;;4901727;29;20119;-92
2023/04/28 02:59:49;;;;;;;10.35;7.20;;;7.30;99.90;;;;;;4919482;29;20028;-92
2023/04/28 03:02:15;;;;;;;11.68;7.72;;;7.30;99.90;;;;;;4902669;29;20032;-93
2023/04/28 03:04:41;;;;;;;12.13;7.82;;;7.30;99.90;;;;;;4902144;29;20032;-92
2023/04/28 03:07:07;;;;;;;13.63;8.13;;;7.30;99.90;;;;;;4902072;29;20434;-92
2023/04/28 03:09:35;;;;;;;9.60;6.20;;;7.30;99.90;;;;;;4918579;29;20098;-92
2023/04/28 03:12:02;;;;;;;11.02;7.28;;;7.30;99.90;;;;;;4918946;29;20059;-92
2023/04/28 03:14:27;;;;;;;8.75;6.03;;;7.30;99.90;;;;;;4901993;29;20036;-92
2023/04/28 03:16:53;;;;;;;11.05;7.18;;;7.30;99.90;;;;;;4902216;29;20032;-92
2023/04/28 03:19:19;;;;;;;10.55;6.60;;;7.30;99.90;;;;;;4901491;29;20032;-92
2023/04/28 03:21:45;;;;;;;10.13;7.03;;;7.30;99.90;;;;;;4901787;29;20059;-91
2023/04/28 03:24:10;;;;;;;13.02;8.30;;;7.30;99.90;;;;;;4902044;29;20031;-92
2023/04/28 03:26:36;;;;;;;11.35;7.85;;;7.30;99.90;;;;;;4918444;29;20075;-93
2023/04/28 03:29:02;;;;;;;13.35;8.63;;;7.30;99.90;;;;;;4918788;29;20062;-93
2023/04/28 03:31:28;;;;;;;11.68;7.93;;;7.30;99.90;;;;;;4918189;29;20032;-92
2023/04/28 03:33:54;;;;;;;12.90;8.90;;;7.30;99.90;;;;;;4901138;29;20035;-92
2023/04/28 03:36:19;;;;;;;14.57;8.25;;;7.30;99.90;;;;;;4917867;29;20405;-92
2023/04/28 03:38:45;;;;;;;12.55;8.60;;;7.40;99.90;;;;;;4901418;29;20028;-93
2023/04/28 03:41:11;;;;;;;14.27;9.30;;;7.30;99.90;;;;;;4901465;29;20044;-92
2023/04/28 03:43:36;;;;;;;15.30;8.52;;;7.30;99.90;;;;;;4901247;29;20087;-93
2023/04/28 03:46:03;;;;;;;13.73;8.65;;;7.30;99.90;;;;;;4917824;29;20063;-92
2023/04/28 03:48:29;;;;;;;11.10;7.45;;;7.30;99.90;;;;;;4900619;29;20024;-92
2023/04/28 03:50:54;;;;;;;15.07;9.98;;;7.30;99.90;;;;;;4917484;29;20075;-93
2023/04/28 03:53:20;;;;;;;8.65;6.47;;;7.30;99.90;;;;;;4901259;29;20115;-93
2023/04/28 03:55:46;;;;;;;12.57;7.93;;;7.30;99.90;;;;;;4917988;29;20024;-92
2023/04/28 03:58:11;;;;;;;13.43;8.23;;;7.30;99.90;;;;;;4917525;29;20478;-93
2023/04/28 04:00:37;;;;;;;14.02;9.07;;;7.30;99.90;;;;;;4901718;29;20032;-93
2023/04/28 04:03:03;;;;;;;10.07;6.57;;;7.20;99.90;;;;;;4900825;29;20020;-93
2023/04/28 04:05:28;;;;;;;15.90;9.07;;;7.20;99.90;;;;;;4917007;29;20510;-93
2023/04/28 04:07:55;;;;;;;13.32;8.57;;;7.20;99.90;;;;;;4917804;29;20016;-93
2023/04/28 04:10:20;;;;;;;13.88;8.63;;;7.20;99.90;;;;;;4901196;29;20486;-92
2023/04/28 04:12:46;;;;;;;15.27;9.63;;;7.30;99.90;;;;;;4916446;29;20055;-93
2023/04/28 04:15:12;;;;;;;15.13;9.80;;;7.30;99.90;;;;;;4916935;29;20066;-93
2023/04/28 04:17:37;;;;;;;15.00;9.85;;;7.30;99.90;;;;;;4916604;29;20032;-92
2023/04/28 04:20:04;;;;;;;14.00;8.68;;;7.30;99.90;;;;;;4923180;29;20047;-93
2023/04/28 04:22:29;;;;;;;15.73;9.98;;;7.30;99.90;;;;;;4925472;29;20550;-93
2023/04/28 04:24:55;;;;;;;18.75;9.98;;;7.30;99.90;;;;;;4924924;29;20076;-92
2023/04/28 04:27:21;;;;;;;13.50;8.80;;;7.30;99.90;;;;;;4921515;29;20028;-91
2023/04/28 04:29:46;;;;;;;16.02;9.65;;;7.30;99.90;;;;;;4921807;29;20678;-93
2023/04/28 04:32:12;;;;;;;15.23;9.65;;;7.30;99.90;;;;;;4922152;29;20110;-93
2023/04/28 04:34:38;;;;;;;16.00;10.27;;;7.30;99.90;;;;;;4921327;29;20039;-92
2023/04/28 04:37:03;;;;;;;17.25;10.77;;;7.30;99.90;;;;;;4916561;29;20139;-93
2023/04/28 04:39:29;;;;;;;15.68;9.43;;;7.30;99.90;;;;;;4916644;29;20080;-92
2023/04/28 04:41:55;;;;;;;15.02;9.63;;;7.30;99.90;;;;;;4916656;29;20043;-92
2023/04/28 04:44:20;;;;;;;16.58;10.23;;;7.40;99.90;;;;;;4916043;29;20051;-90
2023/04/28 04:46:46;;;;;;;17.10;10.73;;;7.40;99.90;;;;;;4916350;29;20115;-94
2023/04/28 04:49:12;;;;;;;17.23;10.30;;;7.40;99.90;;;;;;4916246;29;20032;-92
2023/04/28 04:51:38;;;;;;;17.40;10.10;;;7.40;99.90;;;;;;4915816;29;20030;-92
2023/04/28 04:54:03;;;;;;;19.02;11.07;;;7.40;99.90;;;;;;4916142;29;20030;-92
2023/04/28 04:56:30;;;;;;;19.15;10.50;;;7.40;99.90;;;;;;4916696;29;20496;-91
2023/04/28 04:58:56;;;;;;;19.77;11.25;;;7.40;99.90;;;;;;4916662;29;20021;-92
2023/04/28 05:01:21;;;;;;;19.33;11.20;;;7.40;99.90;;;;;;4916207;29;20554;-93
2023/04/28 05:03:47;;;;;;;17.23;10.30;;;7.40;99.90;;;;;;4915450;29;20367;-91
2023/04/28 05:06:13;;;;;;;16.33;10.02;;;7.40;99.90;;;;;;4915689;29;20032;-92
2023/04/28 05:08:38;;;;;;;18.13;10.50;;;7.40;99.90;;;;;;4918918;29;20076;-93
2023/04/28 05:11:04;;;;;;;19.25;11.18;;;7.40;99.90;;;;;;4919423;29;20123;-92
2023/04/28 05:13:30;;;;;;;20.10;12.13;;;7.40;99.90;;;;;;4920350;29;20490;-92
2023/04/28 05:15:55;;;;;;;23.58;12.60;;;7.40;99.90;;;;;;4920014;29;20027;-92
2023/04/28 05:18:21;;;;;;;20.33;11.57;;;7.40;99.90;;;;;;4919425;29;20375;-93
2023/04/28 05:20:47;;;;;;;20.27;11.52;;;7.40;99.90;;;;;;4919537;29;20048;-93
2023/04/28 05:23:13;;;;;;;21.20;12.23;;;7.40;99.90;;;;;;4924920;29;20501;-91
2023/04/28 05:25:38;;;;;;;21.42;12.10;;;7.40;99.90;;;;;;4923433;29;20032;-93
2023/04/28 05:28:06;;;;;;;19.58;11.05;;;7.40;99.90;;;;;;4919526;29;20028;-93
2023/04/28 05:30:32;;;;;;;22.70;12.63;;;7.50;99.90;;;;;;4919854;29;20039;-93
2023/04/28 05:32:58;;;;;;;21.40;12.88;;;7.40;99.90;;;;;;4919258;29;20063;-93
2023/04/28 05:35:24;;;;;;;23.73;12.93;;;7.50;99.90;;;;;;4919683;29;20032;-93
2023/04/28 05:37:50;;;;;;;24.67;13.05;;;7.50;99.90;;;;;;4919441;29;20032;-92
2023/04/28 05:40:16;;;;;;;25.75;13.35;;;7.50;99.90;;;;;;4919346;29;20099;-93
2023/04/28 05:42:41;;;;;;;25.92;13.13;;;7.50;99.90;;;;;;4920074;29;20035;-92
2023/04/28 05:45:08;;;;;;;25.85;13.23;;;7.50;99.90;;;;;;4920246;29;20043;-92
2023/04/28 05:47:33;;;;;;;29.90;14.38;;;7.50;99.90;;;;;;4919028;29;20082;-93
2023/04/28 05:49:59;;;;;;;33.88;16.48;;;7.50;99.90;;;;;;4919180;29;20119;-92
2023/04/28 05:52:25;;;;;;;33.38;16.38;;;7.50;99.90;;;;;;4932939;29;20035;-92
2023/04/28 05:54:50;;;;;;;38.63;17.90;;;7.60;99.90;;;;;;4936616;29;20040;-92
2023/04/28 05:57:16;;;;;;;42.20;18.02;;;7.60;99.90;;;;;;4936763;29;20036;-93
2023/04/28 05:59:42;;;;;;;30.67;13.38;;;7.60;99.90;;;;;;4936774;29;20024;-93
2023/04/28 06:02:08;;;;;;;40.00;17.42;;;7.60;99.90;;;;;;4937451;29;20043;-93
2023/04/28 06:04:33;;;;;;;40.13;16.10;;;7.60;99.90;;;;;;4937410;29;20028;-93
2023/04/28 06:06:59;;;;;;;37.15;15.82;;;7.60;99.90;;;;;;4938948;29;20032;-93
2023/04/28 06:09:25;;;;;;;42.75;15.93;;;7.60;99.90;;;;;;4944339;29;20047;-92
2023/04/28 06:11:50;;;;;;;43.63;17.27;;;7.60;99.90;;;;;;4948734;29;20581;-92
2023/04/28 06:14:16;;;;;;;35.80;14.75;;;7.70;99.90;;;;;;4952290;29;20477;-91
2023/04/28 06:16:42;;;;;;;45.33;17.42;;;7.70;99.90;;;;;;4946734;29;20052;-92
2023/04/28 06:19:08;;;;;;;41.10;16.33;;;7.70;99.90;;;;;;4942795;29;20019;-92
2023/04/28 06:21:34;;;;;;;37.13;15.68;;;7.70;99.90;;;;;;4939920;29;20032;-92
2023/04/28 06:24:00;;;;;;;45.17;17.83;;;7.70;99.90;;;;;;4940058;29;20028;-91
2023/04/28 06:26:26;;;;;;;32.40;14.23;;;7.70;99.90;;;;;;4938493;29;20103;-92
2023/04/28 06:28:52;;;;;;;40.60;17.45;;;7.70;99.90;;;;;;4937592;29;20111;-93
2023/04/28 06:31:17;;;;;;;34.28;15.98;;;7.70;99.90;;;;;;4937638;29;20026;-92
2023/04/28 06:33:43;;;;;;;34.33;15.20;;;7.80;99.90;;;;;;4937442;29;20119;-92
2023/04/28 06:36:12;;;;;;;33.47;14.50;;;7.80;99.90;;;;;;4937786;29;20031;-92
2023/04/28 06:38:39;;;;;;;31.95;15.73;;;7.90;99.90;;;;;;4938554;29;20359;-92
2023/04/28 06:41:05;;;;;;;33.20;14.05;;;7.90;99.90;;;;;;4940101;29;20040;-92
2023/04/28 06:43:32;;;;;;;36.63;15.63;;;8.00;99.90;;;;;;4937167;29;20512;-92
2023/04/28 06:45:58;;;;;;;35.65;16.33;;;8.10;99.90;;;;;;4933141;29;20055;-92
2023/04/28 06:48:24;;;;;;;25.48;13.65;;;8.20;99.90;;;;;;4926371;29;20031;-92
2023/04/28 06:50:50;;;;;;;28.27;14.40;;;8.30;99.90;;;;;;4935627;29;20032;-91
2023/04/28 06:53:16;;;;;;;22.92;12.77;;;8.30;99.90;;;;;;4937096;29;20034;-91
2023/04/28 06:55:42;;;;;;;23.27;12.88;;;8.40;99.90;;;;;;4937577;29;20050;-91
2023/04/28 06:58:07;;;;;;;24.40;13.43;;;8.60;99.90;;;;;;4936263;29;20063;-90
2023/04/28 07:00:34;;;;;;;24.17;12.48;;;8.60;99.90;;;;;;4934461;29;20036;-91
2023/04/28 07:03:00;;;;;;;20.20;11.85;;;8.70;99.90;;;;;;4930678;29;20098;-91
2023/04/28 07:05:26;;;;;;;21.10;12.25;;;8.70;99.90;;;;;;4936165;29;20119;-91
2023/04/28 07:07:52;;;;;;;20.30;12.25;;;8.80;99.90;;;;;;4936407;29;20488;-92
2023/04/28 07:10:18;;;;;;;18.25;11.20;;;8.80;99.90;;;;;;4930862;29;20118;-92
2023/04/28 07:12:44;;;;;;;19.77;11.50;;;8.90;99.90;;;;;;4917713;29;20052;-92
2023/04/28 07:15:10;;;;;;;16.38;9.70;;;9.10;99.90;;;;;;4924640;29;20052;-93
2023/04/28 07:17:35;;;;;;;19.30;11.05;;;9.10;99.90;;;;;;4925568;29;20084;-92
2023/04/28 07:20:01;;;;;;;18.27;10.38;;;9.10;99.90;;;;;;4926038;29;20043;-92
2023/04/28 07:22:27;;;;;;;14.15;8.88;;;9.20;99.90;;;;;;4930540;29;20081;-93
2023/04/28 07:24:53;;;;;;;15.18;8.70;;;9.30;99.90;;;;;;4926834;29;20035;-93
2023/04/28 07:27:18;;;;;;;15.30;9.73;;;9.40;99.90;;;;;;4926079;29;20024;-92
2023/04/28 07:29:44;;;;;;;12.35;7.82;;;9.50;99.90;;;;;;4928393;29;20373;-91
2023/04/28 07:32:10;;;;;;;11.90;7.25;;;9.60;99.90;;;;;;4930056;29;20478;-91
2023/04/28 07:34:36;;;;;;;12.30;7.72;;;9.70;99.90;;;;;;4932537;29;20474;-92
2023/04/28 07:37:03;;;;;;;10.70;6.80;;;9.80;99.90;;;;;;4938608;29;20034;-92
2023/04/28 07:39:31;;;;;;;13.65;8.43;;;9.80;99.90;;;;;;4936478;29;20032;-92
2023/04/28 07:41:57;;;;;;;12.68;8.25;;;10.00;99.90;;;;;;4936154;29;20032;-92
2023/04/28 07:44:23;;;;;;;15.18;9.50;;;10.00;99.90;;;;;;4934524;29;20032;-91
2023/04/28 07:46:49;;;;;;;15.57;9.00;;;10.00;99.90;;;;;;4934954;29;20114;-92
2023/04/28 07:49:14;;;;;;;17.48;10.68;;;10.10;99.90;;;;;;4935525;29;20035;-92
2023/04/28 07:51:40;;;;;;;18.13;10.10;;;10.10;99.90;;;;;;4930431;29;20039;-93
2023/04/28 07:54:06;;;;;;;15.75;9.25;;;10.10;99.90;;;;;;4927588;29;20027;-93
2023/04/28 07:56:31;;;;;;;13.70;8.77;;;10.10;99.90;;;;;;4932421;29;20027;-93
2023/04/28 07:58:57;;;;;;;13.38;7.75;;;10.20;99.90;;;;;;4933844;29;20087;-94
2023/04/28 08:01:24;;;;;;;8.68;6.03;;;10.20;99.90;;;;;;4933971;29;20032;-93
2023/04/28 08:03:50;;;;;;;10.48;6.55;;;10.20;99.90;;;;;;4936806;29;20057;-93
2023/04/28 08:06:16;;;;;;;9.85;6.40;;;10.10;99.90;;;;;;4936943;29;20027;-93
2023/04/28 08:08:42;;;;;;;10.55;6.60;;;10.10;99.90;;;;;;4936124;29;20390;-92
2023/04/28 08:11:10;;;;;;;10.95;6.82;;;10.10;99.90;;;;;;4935866;29;20047;-93
2023/04/28 08:13:36;;;;;;;10.27;6.47;;;10.10;99.90;;;;;;4936329;29;20091;-93
2023/04/28 08:16:02;;;;;;;10.70;6.60;;;10.00;99.90;;;;;;4923603;29;20056;-91
2023/04/28 08:18:28;;;;;;;11.50;6.82;;;10.00;99.90;;;;;;4929500;29;20059;-93
2023/04/28 08:24:16;;;;;;;12.85;7.00;;;9.90;99.90;;;;;;4946420;23;20063;-93
2023/04/28 08:26:41;;;;;;;12.27;7.63;;;9.90;99.90;;;;;;4886621;29;20024;-94
2023/04/28 08:29:07;;;;;;;10.38;6.90;;;9.90;99.90;;;;;;4922554;29;20028;-91
2023/04/28 08:31:35;;;;;;;11.93;7.68;;;9.90;99.90;;;;;;4917813;29;20067;-92
2023/04/28 08:34:01;;;;;;;13.10;7.88;;;9.80;99.90;;;;;;4901360;29;20432;-92
2023/04/28 08:36:31;;;;;;;12.57;8.15;;;9.80;99.90;;;;;;4900345;29;20100;-94
2023/04/28 08:38:58;;;;;;;11.73;7.37;;;9.90;99.90;;;;;;4900905;29;20029;-93
2023/04/28 08:41:26;;;;;;;13.38;7.57;;;9.90;99.90;;;;;;4893660;29;20104;-93
2023/04/28 08:43:52;;;;;;;11.30;7.25;;;9.90;99.90;;;;;;4893708;29;20021;-92
2023/04/28 08:46:20;;;;;;;10.50;6.65;;;9.90;99.90;;;;;;4892110;29;20152;-93
2023/04/28 08:48:48;;;;;;;11.90;7.13;;;9.90;99.90;;;;;;4890756;29;20028;-94
2023/04/28 08:51:23;;;;;;;11.77;6.60;;;9.90;99.90;;;;;;4897685;29;20025;-93
2023/04/28 08:53:52;;;;;;;10.07;6.50;;;9.90;99.90;;;;;;4905958;29;20042;-93
2023/04/28 08:56:22;;;;;;;12.93;7.07;;;9.90;99.90;;;;;;4925645;29;20051;-92
2023/04/28 08:58:49;;;;;;;11.63;7.28;;;9.90;99.90;;;;;;4906224;29;20374;-92
2023/04/28 09:01:15;;;;;;;11.90;6.72;;;9.90;99.90;;;;;;4904011;29;20044;-93
2023/04/28 09:03:41;;;;;;;10.43;6.28;;;9.90;99.90;;;;;;4903366;29;20152;-93
2023/04/28 09:06:07;;;;;;;9.93;5.70;;;9.90;99.90;;;;;;4889004;29;20167;-92
2023/04/28 09:08:32;;;;;;;8.07;5.15;;;9.90;99.90;;;;;;4882326;29;20052;-92
2023/04/28 09:11:12;;;;;;;8.27;5.07;;;9.90;99.90;;;;;;4883008;29;20127;-91
2023/04/28 09:13:39;;;;;;;6.57;3.60;;;9.90;99.90;;;;;;4881865;29;20037;-94
2023/04/28 09:16:05;;;;;;;10.02;5.82;;;9.90;99.90;;;;;;4882310;29;20036;-93
2023/04/28 09:18:32;;;;;;;10.82;5.40;;;9.90;99.90;;;;;;4881973;29;20036;-94
2023/04/28 09:21:10;;;;;;;9.75;6.43;;;10.00;99.90;;;;;;4884114;29;20040;-92
2023/04/28 09:23:50;;;;;;;8.85;5.53;;;10.00;99.90;;;;;;4883907;29;20558;-92
2023/04/28 09:26:16;;;;;;;9.57;5.60;;;10.10;99.90;;;;;;4884568;29;20482;-93
2023/04/28 09:28:42;;;;;;;5.63;3.38;;;10.20;99.90;;;;;;4885168;29;20036;-92
2023/04/28 09:31:26;;;;;;;6.13;3.50;;;10.20;99.90;;;;;;4882360;29;20037;-93
2023/04/28 09:33:59;;;;;;;5.93;3.50;;;10.20;99.90;;;;;;4880911;29;20120;-93
2023/04/28 09:36:29;;;;;;;5.05;3.60;;;10.30;99.90;;;;;;4872794;29;20487;-93
2023/04/28 09:38:59;;;;;;;5.38;3.35;;;10.30;99.90;;;;;;4875338;29;20032;-92
2023/04/28 09:41:42;;;;;;;4.90;3.13;;;10.30;99.90;;;;;;4894287;29;20108;-94
2023/04/28 09:44:12;;;;;;;6.85;3.92;;;10.40;99.90;;;;;;4899364;29;20052;-93
2023/04/28 09:46:38;;;;;;;6.15;4.20;;;10.40;99.90;;;;;;4884452;29;20463;-93
2023/04/28 09:49:04;;;;;;;5.63;3.30;;;10.40;99.90;;;;;;4898873;29;20126;-92
2023/04/28 09:51:29;;;;;;;8.10;3.83;;;10.40;99.90;;;;;;4882017;29;20033;-93
2023/04/28 09:53:58;;;;;;;9.18;4.43;;;10.50;99.90;;;;;;4867984;29;20025;-93
2023/04/28 09:56:29;;;;;;;11.73;3.67;;;10.50;99.90;;;;;;4867560;29;20472;-93
2023/04/28 09:59:00;;;;;;;5.75;3.50;;;10.60;99.90;;;;;;4882398;29;20025;-93
2023/04/28 10:01:37;;;;;;;6.30;3.72;;;10.60;99.90;;;;;;4865953;29;20093;-93
2023/04/28 10:04:05;;;;;;;4.75;3.42;;;10.60;99.90;;;;;;4867837;29;20033;-93
2023/04/28 10:06:34;;;;;;;5.45;3.35;;;10.60;99.90;;;;;;4867100;29;20025;-93
2023/04/28 10:09:00;;;;;;;5.40;3.75;;;10.60;99.90;;;;;;4851737;29;20488;-92
2023/04/28 10:11:27;;;;;;;5.95;3.80;;;10.60;99.90;;;;;;4867217;29;20056;-92
2023/04/28 10:13:53;;;;;;;5.72;3.35;;;10.60;99.90;;;;;;4866118;29;20080;-91
2023/04/28 10:16:19;;;;;;;8.32;5.30;;;10.70;99.90;;;;;;4888161;29;20033;-92
2023/04/28 10:18:45;;;;;;;7.95;4.80;;;10.60;99.90;;;;;;4872334;29;20036;-92
2023/04/28 10:21:14;;;;;;;8.52;5.05;;;10.70;99.90;;;;;;4866426;29;20041;-92
2023/04/28 10:23:52;;;;;;;8.43;4.88;;;10.70;99.90;;;;;;4865336;29;20053;-92
2023/04/28 10:26:18;;;;;;;9.43;4.97;;;10.70;99.90;;;;;;4866260;29;20053;-92
2023/04/28 10:28:48;;;;;;;8.60;4.80;;;10.80;99.90;;;;;;4866923;29;20037;-94
2023/04/28 10:31:17;;;;;;;9.90;5.47;;;10.90;99.90;;;;;;4882761;29;20025;-93
2023/04/28 10:33:43;;;;;;;11.43;5.40;;;10.90;99.90;;;;;;4866193;29;20420;-92
2023/04/28 10:36:09;;;;;;;8.90;4.72;;;11.00;99.90;;;;;;4865824;29;20025;-91
2023/04/28 10:39:01;;;;;;;12.57;6.25;;;11.10;99.90;;;;;;4883152;29;20057;-91
2023/04/28 10:41:33;;;;;;;10.48;5.88;;;11.20;99.90;;;;;;4865437;29;20041;-95
2023/04/28 10:43:58;;;;;;;13.55;6.13;;;11.30;99.90;;;;;;4867249;29;20029;-93
2023/04/28 10:46:24;;;;;;;10.38;5.43;;;11.30;99.90;;;;;;4866986;29;20380;-95
2023/04/28 10:48:50;;;;;;;8.57;5.45;;;11.40;99.90;;;;;;4868642;29;20115;-92
2023/04/28 10:51:15;;;;;;;10.60;4.93;;;11.50;99.90;;;;;;4871022;29;20172;-91
2023/04/28 10:53:44;;;;;;;5.57;3.92;;;11.60;99.90;;;;;;4876552;29;20108;-94
2023/04/28 10:56:11;;;;;;;6.93;4.93;;;11.60;99.90;;;;;;4880517;29;20048;-93
2023/04/28 10:58:42;;;;;;;6.63;4.55;;;11.60;99.90;;;;;;4876962;29;20062;-93
2023/04/28 11:01:23;;;;;;;;;;;11.70;99.90;;;;;;4895061;29;20044;-91
2023/04/28 11:04:02;;;;;;;9.05;4.97;;;11.70;99.90;;;;;;4902550;29;19912;-93
2023/04/28 11:06:33;;;;;;;6.40;4.63;;;11.70;99.90;;;;;;4890102;29;20028;-93
2023/04/28 11:09:22;;;;;;;11.25;5.10;;;11.70;99.90;;;;;;4874429;29;20671;-93
2023/04/28 11:11:54;;;;;;;8.60;5.32;;;11.70;99.90;;;;;;4889749;29;20031;-93
2023/04/28 11:14:20;;;;;;;9.23;5.60;;;11.60;99.90;;;;;;4875118;29;20056;-93
2023/04/28 11:16:59;;;;;;;7.65;4.55;;;11.60;99.90;;;;;;4873964;29;20061;-93
2023/04/28 11:19:27;;;;;;;8.25;5.75;;;11.60;99.90;;;;;;4878374;29;20033;-93
2023/04/28 11:21:56;;;;;;;11.18;5.95;;;11.60;99.90;;;;;;4892446;29;20507;-94
2023/04/28 11:24:26;;;;;;;9.15;5.93;;;11.50;99.90;;;;;;4874389;29;20048;-94
2023/04/28 11:26:52;;;;;;;9.90;6.18;;;11.50;99.90;;;;;;4892246;29;20033;-91
2023/04/28 11:29:39;;;;;;;10.05;6.00;;;11.50;99.90;;;;;;4871289;29;20024;-93
2023/04/28 11:32:09;;;;;;;13.20;6.85;;;11.40;99.90;;;;;;4876074;29;20017;-93
2023/04/28 11:34:36;;;;;;;11.17;7.07;;;11.40;99.90;;;;;;4874763;29;20349;-92
2023/04/28 11:37:02;;;;;;;13.43;7.60;;;11.30;99.90;;;;;;4889873;29;20274;-93
2023/04/28 11:39:29;;;;;;;11.30;7.40;;;11.30;99.90;;;;;;4892766;29;20071;-92
2023/04/28 11:41:57;;;;;;;11.10;7.35;;;11.30;99.90;;;;;;4874902;29;20036;-93
2023/04/28 11:44:26;;;;;;;9.65;6.70;;;11.40;99.90;;;;;;4876917;29;20044;-91
2023/04/28 11:46:59;;;;;;;9.68;6.95;;;11.30;99.90;;;;;;4889388;29;20076;-93
2023/04/28 11:49:27;;;;;;;11.73;7.57;;;11.30;99.90;;;;;;4869989;29;20107;-93
2023/04/28 11:51:54;;;;;;;11.70;6.85;;;11.30;99.90;;;;;;4873304;29;20028;-92
2023/04/28 11:54:27;;;;;;;11.23;6.47;;;11.30;99.90;;;;;;4891819;29;20088;-92
2023/04/28 11:56:55;;;;;;;11.98;7.25;;;11.30;99.90;;;;;;4871182;29;20031;-91
2023/04/28 11:59:29;;;;;;;11.77;6.93;;;11.30;99.90;;;;;;4873635;29;20044;-93
2023/04/28 12:02:07;;;;;;;12.82;7.82;;;11.30;99.90;;;;;;4892520;29;20033;-94
2023/04/28 12:04:35;;;;;;;12.48;7.70;;;11.30;99.90;;;;;;4874878;29;20025;-91
2023/04/28 12:07:12;;;;;;;9.43;6.75;;;11.20;99.90;;;;;;4874230;29;20080;-94
2023/04/28 12:09:40;;;;;;;9.82;7.15;;;11.20;99.90;;;;;;4873076;29;20072;-93
2023/04/28 12:12:10;;;;;;;9.40;6.50;;;11.20;99.90;;;;;;4892399;29;20107;-94
2023/04/28 12:15:04;;;;;;;9.55;6.68;;;11.20;99.90;;;;;;4889768;29;20032;-94
2023/04/28 12:17:36;;;;;;;10.18;7.78;;;11.10;99.90;;;;;;4873559;29;20045;-94
2023/04/28 12:20:05;;;;;;;11.68;6.82;;;11.10;99.90;;;;;;4874166;29;20036;-93
2023/04/28 12:22:49;;;;;;;12.30;7.82;;;11.10;99.90;;;;;;4890768;29;20045;-92
2023/04/28 12:25:18;;;;;;;12.48;7.70;;;11.00;99.90;;;;;;4888770;29;20017;-93
2023/04/28 12:28:03;;;;;;;12.15;7.30;;;11.00;99.90;;;;;;4891009;29;20020;-94
2023/04/28 12:30:32;;;;;;;13.00;8.75;;;11.00;99.90;;;;;;4880773;29;20040;-92
2023/04/28 12:32:57;;;;;;;12.68;8.15;;;10.90;99.90;;;;;;4897922;29;20111;-91
2023/04/28 12:35:25;;;;;;;11.13;7.45;;;10.90;99.90;;;;;;4897237;29;20070;-92
2023/04/28 12:37:52;;;;;;;12.70;8.25;;;10.90;99.90;;;;;;4875827;29;20013;-93
2023/04/28 12:40:18;;;;;;;12.57;7.22;;;10.90;99.90;;;;;;4881286;29;20033;-94
2023/04/28 12:42:44;;;;;;;12.10;8.18;;;10.90;99.90;;;;;;4882177;29;20033;-94
2023/04/28 12:48:23;;;;;;;12.40;7.47;;;10.90;99.90;;;;;;5100333;23;20108;-93
2023/04/28 12:50:49;;;;;;;11.55;7.38;;;10.80;99.90;;;;;;4881375;29;20120;-93
2023/04/28 12:53:15;;;;;;;13.02;8.13;;;10.80;99.90;;;;;;4897674;29;20060;-93